sensor_id;sensor_type;location;lat;lon;timestamp;temperature;humidity
11091;DHT22;5599;52.210;21.046;2023-12-28T00:00:11;1.60;1.00
11091;DHT22;5599;52.210;21.046;2023-12-28T00:02:40;1.60;1.00
11091;DHT22;5599;52.210;21.046;2023-12-28T00:05:09;1.70;1.00
11091;DHT22;5599;52.210;21.046;2023-12-28T00:07:38;1.60;1.00
11091;DHT22;5599;52.210;21.046;2023-12-28T00:10:10;1.60;1.00
11091;DHT22;5599;52.210;21.046;2023-12-28T00:12:39;1.60;1.00
11091;DHT22;5599;52.210;21.046;2023-12-28T00:15:08;1.60;1.00
11091;DHT22;5599;52.210;21.046;2023-12-28T00:17:38;1.60;1.00
11091;DHT22;5599;52.210;21.046;2023-12-28T00:20:08;1.60;1.00
11091;DHT22;5599;52.210;21.046;2023-12-28T00:22:37;1.60;1.00
11091;DHT22;5599;52.210;21.046;2023-12-28T00:25:07;1.60;1.00
11091;DHT22;5599;52.210;21.046;2023-12-28T00:27:37;1.60;1.00
11091;DHT22;5599;52.210;21.046;2023-12-28T00:30:07;1.50;1.00
11091;DHT22;5599;52.210;21.046;2023-12-28T00:32:36;1.30;1.00
11091;DHT22;5599;52.210;21.046;2023-12-28T00:35:07;1.20;1.00
11091;DHT22;5599;52.210;21.046;2023-12-28T00:37:36;1.20;1.00
11091;DHT22;5599;52.210;21.046;2023-12-28T00:40:06;1.20;1.00
11091;DHT22;5599;52.210;21.046;2023-12-28T00:42:36;1.30;1.00
11091;DHT22;5599;52.210;21.046;2023-12-28T00:45:08;1.20;1.00
11091;DHT22;5599;52.210;21.046;2023-12-28T00:47:37;1.30;1.00
11091;DHT22;5599;52.210;21.046;2023-12-28T00:50:07;1.40;1.00
11091;DHT22;5599;52.210;21.046;2023-12-28T00:52:36;1.40;1.00
11091;DHT22;5599;52.210;21.046;2023-12-28T00:55:06;1.50;1.00
11091;DHT22;5599;52.210;21.046;2023-12-28T00:57:37;1.60;1.00
11091;DHT22;5599;52.210;21.046;2023-12-28T01:00:08;1.60;1.00
11091;DHT22;5599;52.210;21.046;2023-12-28T01:02:37;1.70;1.00
11091;DHT22;5599;52.210;21.046;2023-12-28T01:05:07;1.70;1.00
11091;DHT22;5599;52.210;21.046;2023-12-28T01:07:36;1.70;1.00
11091;DHT22;5599;52.210;21.046;2023-12-28T01:10:06;1.70;1.00
11091;DHT22;5599;52.210;21.046;2023-12-28T01:12:36;1.60;1.00
11091;DHT22;5599;52.210;21.046;2023-12-28T01:15:06;1.60;1.00
11091;DHT22;5599;52.210;21.046;2023-12-28T01:17:35;1.60;1.00
11091;DHT22;5599;52.210;21.046;2023-12-28T01:20:05;1.60;1.00
11091;DHT22;5599;52.210;21.046;2023-12-28T01:22:34;1.50;1.00
11091;DHT22;5599;52.210;21.046;2023-12-28T01:25:04;1.50;1.00
11091;DHT22;5599;52.210;21.046;2023-12-28T01:27:34;1.40;1.00
11091;DHT22;5599;52.210;21.046;2023-12-28T01:30:06;1.40;1.00
11091;DHT22;5599;52.210;21.046;2023-12-28T01:32:36;1.40;1.00
11091;DHT22;5599;52.210;21.046;2023-12-28T01:35:06;1.30;1.00
11091;DHT22;5599;52.210;21.046;2023-12-28T01:37:36;1.20;1.00
11091;DHT22;5599;52.210;21.046;2023-12-28T01:40:06;1.10;1.00
11091;DHT22;5599;52.210;21.046;2023-12-28T01:42:36;1.10;1.00
11091;DHT22;5599;52.210;21.046;2023-12-28T01:45:08;1.20;1.00
11091;DHT22;5599;52.210;21.046;2023-12-28T01:47:37;1.20;1.00
11091;DHT22;5599;52.210;21.046;2023-12-28T01:50:07;1.20;1.00
11091;DHT22;5599;52.210;21.046;2023-12-28T01:52:37;1.20;1.00
11091;DHT22;5599;52.210;21.046;2023-12-28T01:55:07;1.20;1.00
11091;DHT22;5599;52.210;21.046;2023-12-28T01:57:36;1.10;1.00
11091;DHT22;5599;52.210;21.046;2023-12-28T02:00:08;1.10;1.00
11091;DHT22;5599;52.210;21.046;2023-12-28T02:02:41;1.20;1.00
11091;DHT22;5599;52.210;21.046;2023-12-28T02:05:11;1.30;1.00
11091;DHT22;5599;52.210;21.046;2023-12-28T02:07:41;1.40;1.00
11091;DHT22;5599;52.210;21.046;2023-12-28T02:10:10;1.50;1.00
11091;DHT22;5599;52.210;21.046;2023-12-28T02:12:39;1.50;1.00
11091;DHT22;5599;52.210;21.046;2023-12-28T02:15:11;1.60;1.00
11091;DHT22;5599;52.210;21.046;2023-12-28T02:17:45;1.50;1.00
11091;DHT22;5599;52.210;21.046;2023-12-28T02:20:16;1.40;1.00
11091;DHT22;5599;52.210;21.046;2023-12-28T02:22:47;1.30;1.00
11091;DHT22;5599;52.210;21.046;2023-12-28T02:25:17;1.30;1.00
11091;DHT22;5599;52.210;21.046;2023-12-28T02:27:48;1.40;1.00
11091;DHT22;5599;52.210;21.046;2023-12-28T02:30:18;1.40;1.00
11091;DHT22;5599;52.210;21.046;2023-12-28T02:33:00;1.50;1.00
11091;DHT22;5599;52.210;21.046;2023-12-28T02:35:33;1.50;1.00
11091;DHT22;5599;52.210;21.046;2023-12-28T02:38:09;1.60;1.00
11091;DHT22;5599;52.210;21.046;2023-12-28T02:40:41;1.60;1.00
11091;DHT22;5599;52.210;21.046;2023-12-28T02:43:12;1.60;1.00
11091;DHT22;5599;52.210;21.046;2023-12-28T02:45:41;1.60;1.00
11091;DHT22;5599;52.210;21.046;2023-12-28T02:48:10;1.60;1.00
11091;DHT22;5599;52.210;21.046;2023-12-28T02:50:39;1.60;1.00
11091;DHT22;5599;52.210;21.046;2023-12-28T02:53:08;1.60;1.00
11091;DHT22;5599;52.210;21.046;2023-12-28T02:55:37;1.70;1.00
11091;DHT22;5599;52.210;21.046;2023-12-28T02:58:08;1.80;1.00
11091;DHT22;5599;52.210;21.046;2023-12-28T03:00:37;1.80;1.00
11091;DHT22;5599;52.210;21.046;2023-12-28T03:03:06;1.90;1.00
11091;DHT22;5599;52.210;21.046;2023-12-28T03:05:35;1.90;1.00
11091;DHT22;5599;52.210;21.046;2023-12-28T03:08:04;1.90;1.00
11091;DHT22;5599;52.210;21.046;2023-12-28T03:10:33;1.90;1.00
11091;DHT22;5599;52.210;21.046;2023-12-28T03:13:03;1.90;1.00
11091;DHT22;5599;52.210;21.046;2023-12-28T03:15:33;1.90;1.00
11091;DHT22;5599;52.210;21.046;2023-12-28T03:18:02;1.80;1.00
11091;DHT22;5599;52.210;21.046;2023-12-28T03:20:32;1.80;1.00
11091;DHT22;5599;52.210;21.046;2023-12-28T03:23:01;1.80;1.00
11091;DHT22;5599;52.210;21.046;2023-12-28T03:25:30;1.90;1.00
11091;DHT22;5599;52.210;21.046;2023-12-28T03:27:59;1.90;1.00
11091;DHT22;5599;52.210;21.046;2023-12-28T03:30:29;1.90;1.00
11091;DHT22;5599;52.210;21.046;2023-12-28T03:32:59;2.00;1.00
11091;DHT22;5599;52.210;21.046;2023-12-28T03:35:29;1.90;1.00
11091;DHT22;5599;52.210;21.046;2023-12-28T03:37:58;1.90;1.00
11091;DHT22;5599;52.210;21.046;2023-12-28T03:40:27;1.90;1.00
11091;DHT22;5599;52.210;21.046;2023-12-28T03:42:56;2.00;1.00
11091;DHT22;5599;52.210;21.046;2023-12-28T03:45:25;2.00;1.00
11091;DHT22;5599;52.210;21.046;2023-12-28T03:47:54;1.90;1.00
11091;DHT22;5599;52.210;21.046;2023-12-28T03:50:25;1.90;1.00
11091;DHT22;5599;52.210;21.046;2023-12-28T03:52:54;1.90;1.00
11091;DHT22;5599;52.210;21.046;2023-12-28T03:55:26;1.90;1.00
11091;DHT22;5599;52.210;21.046;2023-12-28T03:57:55;1.80;1.00
11091;DHT22;5599;52.210;21.046;2023-12-28T04:00:24;1.90;1.00
11091;DHT22;5599;52.210;21.046;2023-12-28T04:02:53;1.90;1.00
11091;DHT22;5599;52.210;21.046;2023-12-28T04:05:27;1.90;1.00
11091;DHT22;5599;52.210;21.046;2023-12-28T04:07:57;1.80;1.00
11091;DHT22;5599;52.210;21.046;2023-12-28T04:10:29;1.80;1.00
11091;DHT22;5599;52.210;21.046;2023-12-28T04:12:59;1.90;1.00
11091;DHT22;5599;52.210;21.046;2023-12-28T04:15:29;1.90;1.00
11091;DHT22;5599;52.210;21.046;2023-12-28T04:17:59;1.80;99.90
11091;DHT22;5599;52.210;21.046;2023-12-28T04:20:30;1.80;1.00
11091;DHT22;5599;52.210;21.046;2023-12-28T04:22:59;1.70;99.90
11091;DHT22;5599;52.210;21.046;2023-12-28T04:25:28;1.80;1.00
11091;DHT22;5599;52.210;21.046;2023-12-28T04:27:57;1.70;99.90
11091;DHT22;5599;52.210;21.046;2023-12-28T04:30:26;1.70;1.00
11091;DHT22;5599;52.210;21.046;2023-12-28T04:32:56;1.70;1.00
11091;DHT22;5599;52.210;21.046;2023-12-28T04:35:25;1.70;99.90
11091;DHT22;5599;52.210;21.046;2023-12-28T04:37:57;1.70;99.90
11091;DHT22;5599;52.210;21.046;2023-12-28T04:40:27;1.80;99.90
11091;DHT22;5599;52.210;21.046;2023-12-28T04:42:56;1.80;99.90
11091;DHT22;5599;52.210;21.046;2023-12-28T04:45:26;1.70;99.90
11091;DHT22;5599;52.210;21.046;2023-12-28T04:47:56;1.60;99.90
11091;DHT22;5599;52.210;21.046;2023-12-28T04:50:26;1.80;99.90
11091;DHT22;5599;52.210;21.046;2023-12-28T04:52:57;1.80;99.90
11091;DHT22;5599;52.210;21.046;2023-12-28T04:55:27;1.80;99.90
11091;DHT22;5599;52.210;21.046;2023-12-28T04:57:56;1.90;99.90
11091;DHT22;5599;52.210;21.046;2023-12-28T05:00:25;1.90;99.90
11091;DHT22;5599;52.210;21.046;2023-12-28T05:02:54;1.90;91.80
11091;DHT22;5599;52.210;21.046;2023-12-28T05:05:24;1.90;99.90
11091;DHT22;5599;52.210;21.046;2023-12-28T05:07:53;1.90;1.00
11091;DHT22;5599;52.210;21.046;2023-12-28T05:10:24;1.90;44.80
11091;DHT22;5599;52.210;21.046;2023-12-28T05:12:55;2.00;92.20
11091;DHT22;5599;52.210;21.046;2023-12-28T05:15:28;2.10;21.70
11091;DHT22;5599;52.210;21.046;2023-12-28T05:17:58;2.10;1.00
11091;DHT22;5599;52.210;21.046;2023-12-28T05:20:28;2.20;1.00
11091;DHT22;5599;52.210;21.046;2023-12-28T05:22:57;2.30;1.00
11091;DHT22;5599;52.210;21.046;2023-12-28T05:25:28;2.20;99.90
11091;DHT22;5599;52.210;21.046;2023-12-28T05:27:57;2.20;99.90
11091;DHT22;5599;52.210;21.046;2023-12-28T05:30:27;2.30;99.90
11091;DHT22;5599;52.210;21.046;2023-12-28T05:32:56;2.30;1.00
11091;DHT22;5599;52.210;21.046;2023-12-28T05:35:25;2.40;1.00
11091;DHT22;5599;52.210;21.046;2023-12-28T05:37:54;2.40;1.00
11091;DHT22;5599;52.210;21.046;2023-12-28T05:40:24;2.40;99.90
11091;DHT22;5599;52.210;21.046;2023-12-28T05:42:55;2.50;99.90
11091;DHT22;5599;52.210;21.046;2023-12-28T05:45:24;2.50;99.90
11091;DHT22;5599;52.210;21.046;2023-12-28T05:47:53;2.50;1.00
11091;DHT22;5599;52.210;21.046;2023-12-28T05:50:23;2.50;1.00
11091;DHT22;5599;52.210;21.046;2023-12-28T05:52:53;2.40;99.90
11091;DHT22;5599;52.210;21.046;2023-12-28T05:55:22;2.40;99.90
11091;DHT22;5599;52.210;21.046;2023-12-28T05:57:52;2.40;1.00
11091;DHT22;5599;52.210;21.046;2023-12-28T06:00:24;2.40;1.00
11091;DHT22;5599;52.210;21.046;2023-12-28T06:02:54;2.40;99.90
11091;DHT22;5599;52.210;21.046;2023-12-28T06:05:24;2.40;99.90
11091;DHT22;5599;52.210;21.046;2023-12-28T06:07:53;2.50;99.90
11091;DHT22;5599;52.210;21.046;2023-12-28T06:10:22;2.50;99.90
11091;DHT22;5599;52.210;21.046;2023-12-28T06:12:52;2.50;99.90
11091;DHT22;5599;52.210;21.046;2023-12-28T06:15:21;2.40;48.50
11091;DHT22;5599;52.210;21.046;2023-12-28T06:17:53;2.40;99.90
11091;DHT22;5599;52.210;21.046;2023-12-28T06:20:22;2.40;1.00
11091;DHT22;5599;52.210;21.046;2023-12-28T06:22:51;2.40;99.90
11091;DHT22;5599;52.210;21.046;2023-12-28T06:25:20;2.50;99.90
11091;DHT22;5599;52.210;21.046;2023-12-28T06:27:50;2.50;1.00
11091;DHT22;5599;52.210;21.046;2023-12-28T06:30:19;2.40;99.90
11091;DHT22;5599;52.210;21.046;2023-12-28T06:32:48;2.50;99.90
11091;DHT22;5599;52.210;21.046;2023-12-28T06:35:19;2.50;1.00
11091;DHT22;5599;52.210;21.046;2023-12-28T06:37:49;2.50;1.00
11091;DHT22;5599;52.210;21.046;2023-12-28T06:40:18;2.40;1.00
11091;DHT22;5599;52.210;21.046;2023-12-28T06:42:47;2.40;99.90
11091;DHT22;5599;52.210;21.046;2023-12-28T06:45:16;2.50;1.00
11091;DHT22;5599;52.210;21.046;2023-12-28T06:47:45;2.50;1.00
11091;DHT22;5599;52.210;21.046;2023-12-28T06:50:14;2.60;1.00
11091;DHT22;5599;52.210;21.046;2023-12-28T06:52:45;2.60;99.90
11091;DHT22;5599;52.210;21.046;2023-12-28T06:55:14;2.50;1.00
11091;DHT22;5599;52.210;21.046;2023-12-28T06:57:44;2.60;99.90
11091;DHT22;5599;52.210;21.046;2023-12-28T07:00:14;2.60;99.90
11091;DHT22;5599;52.210;21.046;2023-12-28T07:02:43;2.70;1.00
11091;DHT22;5599;52.210;21.046;2023-12-28T07:05:13;2.70;99.90
11091;DHT22;5599;52.210;21.046;2023-12-28T07:07:42;2.70;99.90
11091;DHT22;5599;52.210;21.046;2023-12-28T07:10:13;2.70;99.90
11091;DHT22;5599;52.210;21.046;2023-12-28T07:12:42;2.80;1.00
11091;DHT22;5599;52.210;21.046;2023-12-28T07:15:12;2.90;1.00
11091;DHT22;5599;52.210;21.046;2023-12-28T07:17:42;3.00;99.90
11091;DHT22;5599;52.210;21.046;2023-12-28T07:20:12;3.00;99.90
11091;DHT22;5599;52.210;21.046;2023-12-28T07:22:41;3.00;99.90
11091;DHT22;5599;52.210;21.046;2023-12-28T07:25:10;3.10;99.90
11091;DHT22;5599;52.210;21.046;2023-12-28T07:27:41;3.20;99.90
11091;DHT22;5599;52.210;21.046;2023-12-28T07:30:11;3.20;1.00
11091;DHT22;5599;52.210;21.046;2023-12-28T07:32:40;3.20;45.10
11091;DHT22;5599;52.210;21.046;2023-12-28T07:35:10;3.30;99.90
11091;DHT22;5599;52.210;21.046;2023-12-28T07:37:40;3.40;1.00
11091;DHT22;5599;52.210;21.046;2023-12-28T07:40:11;3.50;44.60
11091;DHT22;5599;52.210;21.046;2023-12-28T07:42:41;3.60;1.00
11091;DHT22;5599;52.210;21.046;2023-12-28T07:45:11;3.80;99.90
11091;DHT22;5599;52.210;21.046;2023-12-28T07:47:40;3.90;1.00
11091;DHT22;5599;52.210;21.046;2023-12-28T07:50:09;4.00;99.90
11091;DHT22;5599;52.210;21.046;2023-12-28T07:52:39;4.20;1.00
11091;DHT22;5599;52.210;21.046;2023-12-28T07:55:09;4.50;99.90
11091;DHT22;5599;52.210;21.046;2023-12-28T07:57:39;4.70;1.00
11091;DHT22;5599;52.210;21.046;2023-12-28T08:00:10;5.00;1.00
11091;DHT22;5599;52.210;21.046;2023-12-28T08:02:40;5.30;1.00
11091;DHT22;5599;52.210;21.046;2023-12-28T08:05:09;5.50;99.90
11091;DHT22;5599;52.210;21.046;2023-12-28T08:07:39;5.80;8.00
11091;DHT22;5599;52.210;21.046;2023-12-28T08:10:09;6.10;99.90
11091;DHT22;5599;52.210;21.046;2023-12-28T08:12:38;6.20;44.50
11091;DHT22;5599;52.210;21.046;2023-12-28T08:15:10;6.20;1.00
11091;DHT22;5599;52.210;21.046;2023-12-28T08:17:39;6.30;1.00
11091;DHT22;5599;52.210;21.046;2023-12-28T08:20:09;6.50;99.90
11091;DHT22;5599;52.210;21.046;2023-12-28T08:22:38;6.50;99.90
11091;DHT22;5599;52.210;21.046;2023-12-28T08:25:08;6.30;99.90
11091;DHT22;5599;52.210;21.046;2023-12-28T08:27:37;6.20;1.00
11091;DHT22;5599;52.210;21.046;2023-12-28T08:30:07;6.10;19.20
11091;DHT22;5599;52.210;21.046;2023-12-28T08:32:39;6.10;1.00
11091;DHT22;5599;52.210;21.046;2023-12-28T08:35:08;5.90;99.90
11091;DHT22;5599;52.210;21.046;2023-12-28T08:37:37;5.90;1.00
11091;DHT22;5599;52.210;21.046;2023-12-28T08:40:07;5.80;99.90
11091;DHT22;5599;52.210;21.046;2023-12-28T08:42:37;5.70;99.90
11091;DHT22;5599;52.210;21.046;2023-12-28T08:45:07;5.80;91.10
11091;DHT22;5599;52.210;21.046;2023-12-28T08:47:36;5.80;1.00
11091;DHT22;5599;52.210;21.046;2023-12-28T08:50:07;5.80;60.90
11091;DHT22;5599;52.210;21.046;2023-12-28T08:52:36;5.80;56.00
11091;DHT22;5599;52.210;21.046;2023-12-28T08:55:06;5.80;99.90
11091;DHT22;5599;52.210;21.046;2023-12-28T08:57:35;5.90;99.90
11091;DHT22;5599;52.210;21.046;2023-12-28T09:00:10;6.10;99.90
11091;DHT22;5599;52.210;21.046;2023-12-28T09:02:42;6.20;1.00
11091;DHT22;5599;52.210;21.046;2023-12-28T09:05:13;6.30;1.00
11091;DHT22;5599;52.210;21.046;2023-12-28T09:07:42;6.40;99.90
11091;DHT22;5599;52.210;21.046;2023-12-28T09:10:12;6.50;99.90
11091;DHT22;5599;52.210;21.046;2023-12-28T09:12:41;6.60;36.80
11091;DHT22;5599;52.210;21.046;2023-12-28T09:15:11;6.70;1.00
11091;DHT22;5599;52.210;21.046;2023-12-28T09:17:40;6.70;1.00
11091;DHT22;5599;52.210;21.046;2023-12-28T09:20:10;6.80;1.00
11091;DHT22;5599;52.210;21.046;2023-12-28T09:22:41;6.90;1.00
11091;DHT22;5599;52.210;21.046;2023-12-28T09:25:11;7.00;99.90
11091;DHT22;5599;52.210;21.046;2023-12-28T09:27:40;7.00;99.90
11091;DHT22;5599;52.210;21.046;2023-12-28T09:30:09;7.10;99.90
11091;DHT22;5599;52.210;21.046;2023-12-28T09:32:39;7.20;99.90
11091;DHT22;5599;52.210;21.046;2023-12-28T09:35:08;7.30;99.90
11091;DHT22;5599;52.210;21.046;2023-12-28T09:37:37;7.40;61.00
11091;DHT22;5599;52.210;21.046;2023-12-28T09:40:09;7.50;60.50
11091;DHT22;5599;52.210;21.046;2023-12-28T09:42:46;7.50;1.00
11091;DHT22;5599;52.210;21.046;2023-12-28T09:45:18;7.50;1.00
11091;DHT22;5599;52.210;21.046;2023-12-28T09:47:48;7.50;15.60
11091;DHT22;5599;52.210;21.046;2023-12-28T09:50:19;7.60;99.90
11091;DHT22;5599;52.210;21.046;2023-12-28T09:52:48;7.50;99.90
11091;DHT22;5599;52.210;21.046;2023-12-28T09:55:19;7.60;1.00
11091;DHT22;5599;52.210;21.046;2023-12-28T09:57:48;7.70;99.90
11091;DHT22;5599;52.210;21.046;2023-12-28T10:00:17;7.80;1.00
11091;DHT22;5599;52.210;21.046;2023-12-28T10:02:47;7.80;1.00
11091;DHT22;5599;52.210;21.046;2023-12-28T10:05:16;7.90;1.00
11091;DHT22;5599;52.210;21.046;2023-12-28T10:07:46;7.90;99.90
11091;DHT22;5599;52.210;21.046;2023-12-28T10:10:19;8.00;99.90
11091;DHT22;5599;52.210;21.046;2023-12-28T10:12:49;8.00;99.90
11091;DHT22;5599;52.210;21.046;2023-12-28T10:15:19;8.20;1.00
11091;DHT22;5599;52.210;21.046;2023-12-28T10:17:48;8.30;99.90
11091;DHT22;5599;52.210;21.046;2023-12-28T10:20:18;8.40;1.00
11091;DHT22;5599;52.210;21.046;2023-12-28T10:22:47;8.40;1.00
11091;DHT22;5599;52.210;21.046;2023-12-28T10:25:16;8.40;1.00
11091;DHT22;5599;52.210;21.046;2023-12-28T10:27:50;8.50;1.00
11091;DHT22;5599;52.210;21.046;2023-12-28T10:30:20;8.50;99.90
11091;DHT22;5599;52.210;21.046;2023-12-28T10:32:50;8.50;1.00
11091;DHT22;5599;52.210;21.046;2023-12-28T10:35:20;8.50;99.90
11091;DHT22;5599;52.210;21.046;2023-12-28T10:37:52;8.50;99.90
11091;DHT22;5599;52.210;21.046;2023-12-28T10:40:21;8.50;99.90
11091;DHT22;5599;52.210;21.046;2023-12-28T10:42:54;8.50;99.90
11091;DHT22;5599;52.210;21.046;2023-12-28T10:45:25;8.50;99.90
11091;DHT22;5599;52.210;21.046;2023-12-28T10:48:04;8.60;1.00
11091;DHT22;5599;52.210;21.046;2023-12-28T10:50:39;8.60;1.00
11091;DHT22;5599;52.210;21.046;2023-12-28T10:53:21;8.60;99.90
11091;DHT22;5599;52.210;21.046;2023-12-28T10:56:01;8.70;99.90
11091;DHT22;5599;52.210;21.046;2023-12-28T10:58:48;8.60;99.90
11091;DHT22;5599;52.210;21.046;2023-12-28T11:01:22;8.70;1.00
11091;DHT22;5599;52.210;21.046;2023-12-28T11:03:57;8.70;1.00
11091;DHT22;5599;52.210;21.046;2023-12-28T11:06:29;8.70;1.00
11091;DHT22;5599;52.210;21.046;2023-12-28T11:09:00;8.60;1.00
11091;DHT22;5599;52.210;21.046;2023-12-28T11:11:30;8.60;1.00
11091;DHT22;5599;52.210;21.046;2023-12-28T11:14:01;8.60;99.90
11091;DHT22;5599;52.210;21.046;2023-12-28T11:16:32;8.60;1.00
11091;DHT22;5599;52.210;21.046;2023-12-28T11:19:02;8.50;1.00
11091;DHT22;5599;52.210;21.046;2023-12-28T11:21:32;8.50;1.00
11091;DHT22;5599;52.210;21.046;2023-12-28T11:24:02;8.60;99.90
11091;DHT22;5599;52.210;21.046;2023-12-28T11:26:32;8.50;99.90
11091;DHT22;5599;52.210;21.046;2023-12-28T11:29:04;8.50;99.90
11091;DHT22;5599;52.210;21.046;2023-12-28T11:31:33;8.50;1.00
11091;DHT22;5599;52.210;21.046;2023-12-28T11:34:04;8.40;1.00
11091;DHT22;5599;52.210;21.046;2023-12-28T11:36:44;8.40;1.00
11091;DHT22;5599;52.210;21.046;2023-12-28T11:39:20;8.40;1.00
11091;DHT22;5599;52.210;21.046;2023-12-28T11:41:59;8.30;99.90
11091;DHT22;5599;52.210;21.046;2023-12-28T11:44:36;8.30;1.00
11091;DHT22;5599;52.210;21.046;2023-12-28T11:47:13;8.20;99.90
11091;DHT22;5599;52.210;21.046;2023-12-28T11:49:42;8.10;99.90
11091;DHT22;5599;52.210;21.046;2023-12-28T11:52:23;8.10;1.00
11091;DHT22;5599;52.210;21.046;2023-12-28T11:54:52;8.00;16.00
11091;DHT22;5599;52.210;21.046;2023-12-28T11:57:22;8.00;99.90
11091;DHT22;5599;52.210;21.046;2023-12-28T11:59:57;8.00;99.90
11091;DHT22;5599;52.210;21.046;2023-12-28T12:02:26;8.00;99.90
11091;DHT22;5599;52.210;21.046;2023-12-28T12:04:56;8.10;1.00
11091;DHT22;5599;52.210;21.046;2023-12-28T12:07:25;8.10;1.00
11091;DHT22;5599;52.210;21.046;2023-12-28T12:09:58;8.10;1.00
11091;DHT22;5599;52.210;21.046;2023-12-28T12:12:29;8.10;1.00
11091;DHT22;5599;52.210;21.046;2023-12-28T12:15:00;8.10;1.00
11091;DHT22;5599;52.210;21.046;2023-12-28T12:17:30;8.20;1.00
11091;DHT22;5599;52.210;21.046;2023-12-28T12:19:59;8.20;99.90
11091;DHT22;5599;52.210;21.046;2023-12-28T12:22:29;8.30;99.90
11091;DHT22;5599;52.210;21.046;2023-12-28T12:25:00;8.30;99.90
11091;DHT22;5599;52.210;21.046;2023-12-28T12:27:31;8.40;99.90
11091;DHT22;5599;52.210;21.046;2023-12-28T12:30:02;8.30;99.90
11091;DHT22;5599;52.210;21.046;2023-12-28T12:32:32;8.30;99.90
11091;DHT22;5599;52.210;21.046;2023-12-28T12:35:01;8.30;1.00
11091;DHT22;5599;52.210;21.046;2023-12-28T12:37:31;8.30;99.90
11091;DHT22;5599;52.210;21.046;2023-12-28T12:40:00;8.40;99.90
11091;DHT22;5599;52.210;21.046;2023-12-28T12:42:30;8.40;99.90
11091;DHT22;5599;52.210;21.046;2023-12-28T12:44:59;8.40;1.00
11091;DHT22;5599;52.210;21.046;2023-12-28T12:47:33;8.40;1.00
11091;DHT22;5599;52.210;21.046;2023-12-28T12:50:03;8.50;1.00
11091;DHT22;5599;52.210;21.046;2023-12-28T12:52:33;8.50;99.90
11091;DHT22;5599;52.210;21.046;2023-12-28T12:55:03;8.40;99.90
11091;DHT22;5599;52.210;21.046;2023-12-28T12:57:32;8.50;1.00
11091;DHT22;5599;52.210;21.046;2023-12-28T13:00:02;8.50;1.00
11091;DHT22;5599;52.210;21.046;2023-12-28T13:02:37;8.50;99.90
11091;DHT22;5599;52.210;21.046;2023-12-28T13:05:06;8.60;99.90
11091;DHT22;5599;52.210;21.046;2023-12-28T13:07:36;8.70;1.00
11091;DHT22;5599;52.210;21.046;2023-12-28T13:10:06;8.70;99.90
11091;DHT22;5599;52.210;21.046;2023-12-28T13:12:35;8.70;99.90
11091;DHT22;5599;52.210;21.046;2023-12-28T13:15:05;8.70;1.00
11091;DHT22;5599;52.210;21.046;2023-12-28T13:17:38;8.70;1.00
11091;DHT22;5599;52.210;21.046;2023-12-28T13:20:09;8.80;99.90
11091;DHT22;5599;52.210;21.046;2023-12-28T13:22:38;8.70;99.90
11091;DHT22;5599;52.210;21.046;2023-12-28T13:25:07;8.70;99.90
11091;DHT22;5599;52.210;21.046;2023-12-28T13:27:37;8.70;1.00
11091;DHT22;5599;52.210;21.046;2023-12-28T13:30:07;8.80;1.00
11091;DHT22;5599;52.210;21.046;2023-12-28T13:32:37;8.80;1.00
11091;DHT22;5599;52.210;21.046;2023-12-28T13:35:07;8.80;99.90
11091;DHT22;5599;52.210;21.046;2023-12-28T13:37:37;8.90;99.90
11091;DHT22;5599;52.210;21.046;2023-12-28T13:40:07;8.90;75.40
11091;DHT22;5599;52.210;21.046;2023-12-28T13:42:37;8.90;1.00
11091;DHT22;5599;52.210;21.046;2023-12-28T13:45:07;8.90;2.80
11091;DHT22;5599;52.210;21.046;2023-12-28T13:47:38;9.00;99.80
11091;DHT22;5599;52.210;21.046;2023-12-28T13:50:08;9.00;99.90
11091;DHT22;5599;52.210;21.046;2023-12-28T13:52:38;9.00;1.00
11091;DHT22;5599;52.210;21.046;2023-12-28T13:55:08;9.00;1.00
11091;DHT22;5599;52.210;21.046;2023-12-28T13:57:39;9.00;1.00
11091;DHT22;5599;52.210;21.046;2023-12-28T14:00:09;9.10;1.00
11091;DHT22;5599;52.210;21.046;2023-12-28T14:02:42;9.10;1.00
11091;DHT22;5599;52.210;21.046;2023-12-28T14:05:11;9.10;99.90
11091;DHT22;5599;52.210;21.046;2023-12-28T14:07:41;9.00;99.90
11091;DHT22;5599;52.210;21.046;2023-12-28T14:10:10;9.10;99.90
11091;DHT22;5599;52.210;21.046;2023-12-28T14:12:39;9.10;99.90
11091;DHT22;5599;52.210;21.046;2023-12-28T14:15:09;9.10;1.00
11091;DHT22;5599;52.210;21.046;2023-12-28T14:17:41;9.10;99.90
11091;DHT22;5599;52.210;21.046;2023-12-28T14:20:10;9.10;99.90
11091;DHT22;5599;52.210;21.046;2023-12-28T14:22:41;9.10;99.90
11091;DHT22;5599;52.210;21.046;2023-12-28T14:25:11;9.10;90.30
11091;DHT22;5599;52.210;21.046;2023-12-28T14:27:41;9.00;1.00
11091;DHT22;5599;52.210;21.046;2023-12-28T14:30:12;9.00;1.00
11091;DHT22;5599;52.210;21.046;2023-12-28T14:32:44;9.00;99.90
11091;DHT22;5599;52.210;21.046;2023-12-28T14:35:14;9.00;99.90
11091;DHT22;5599;52.210;21.046;2023-12-28T14:37:44;9.10;99.90
11091;DHT22;5599;52.210;21.046;2023-12-28T14:40:14;9.10;99.90
11091;DHT22;5599;52.210;21.046;2023-12-28T14:42:43;9.10;99.90
11091;DHT22;5599;52.210;21.046;2023-12-28T14:45:12;9.10;99.90
11091;DHT22;5599;52.210;21.046;2023-12-28T14:47:43;9.20;1.00
11091;DHT22;5599;52.210;21.046;2023-12-28T14:50:13;9.20;99.90
11091;DHT22;5599;52.210;21.046;2023-12-28T14:52:42;9.20;1.00
11091;DHT22;5599;52.210;21.046;2023-12-28T14:55:11;9.20;1.00
11091;DHT22;5599;52.210;21.046;2023-12-28T14:57:41;9.20;1.00
11091;DHT22;5599;52.210;21.046;2023-12-28T15:00:11;9.20;1.00
11091;DHT22;5599;52.210;21.046;2023-12-28T15:02:40;9.20;99.90
11091;DHT22;5599;52.210;21.046;2023-12-28T15:05:11;9.20;1.00
11091;DHT22;5599;52.210;21.046;2023-12-28T15:07:41;9.20;1.00
11091;DHT22;5599;52.210;21.046;2023-12-28T15:10:11;9.20;99.90
11091;DHT22;5599;52.210;21.046;2023-12-28T15:12:41;9.20;50.20
11091;DHT22;5599;52.210;21.046;2023-12-28T15:15:11;9.10;99.90
11091;DHT22;5599;52.210;21.046;2023-12-28T15:17:41;9.10;1.00
11091;DHT22;5599;52.210;21.046;2023-12-28T15:20:13;9.10;1.00
11091;DHT22;5599;52.210;21.046;2023-12-28T15:22:43;9.10;99.90
11091;DHT22;5599;52.210;21.046;2023-12-28T15:25:13;9.10;99.90
11091;DHT22;5599;52.210;21.046;2023-12-28T15:27:42;9.00;1.00
11091;DHT22;5599;52.210;21.046;2023-12-28T15:30:12;9.00;76.50
11091;DHT22;5599;52.210;21.046;2023-12-28T15:32:41;8.90;1.00
11091;DHT22;5599;52.210;21.046;2023-12-28T15:35:14;8.90;16.40
11091;DHT22;5599;52.210;21.046;2023-12-28T15:37:44;8.90;1.00
11091;DHT22;5599;52.210;21.046;2023-12-28T15:40:13;8.80;99.90
11091;DHT22;5599;52.210;21.046;2023-12-28T15:42:42;8.80;99.90
11091;DHT22;5599;52.210;21.046;2023-12-28T15:45:15;8.80;99.90
11091;DHT22;5599;52.210;21.046;2023-12-28T15:47:45;8.80;69.00
11091;DHT22;5599;52.210;21.046;2023-12-28T15:50:15;8.80;1.00
11091;DHT22;5599;52.210;21.046;2023-12-28T15:52:44;8.80;1.00
11091;DHT22;5599;52.210;21.046;2023-12-28T15:55:14;8.70;1.00
11091;DHT22;5599;52.210;21.046;2023-12-28T15:57:43;8.70;1.00
11091;DHT22;5599;52.210;21.046;2023-12-28T16:00:13;8.70;1.00
11091;DHT22;5599;52.210;21.046;2023-12-28T16:02:42;8.70;1.00
11091;DHT22;5599;52.210;21.046;2023-12-28T16:05:11;8.60;1.00
11091;DHT22;5599;52.210;21.046;2023-12-28T16:07:42;8.50;1.00
11091;DHT22;5599;52.210;21.046;2023-12-28T16:10:11;8.50;99.90
11091;DHT22;5599;52.210;21.046;2023-12-28T16:12:40;8.50;1.00